ADDS METAR Data INFO
IDs: Format: Raw Decoded Include TAF

Data at: 0224 UTC 14 Dec 2017

KDKB 140215Z AUTO 32014G23KT 10SM UP OVC022 M03/M08 A2965 RMK AO2 T10331079
KDKB 140155Z AUTO 32017G27KT 10SM UP OVC024 M03/M08 A2964 RMK AO2 T10311080
KDKB 140135Z AUTO 31018G27KT 10SM OVC026 M03/M08 A2962 RMK AO2 T10301080
KDKB 140115Z AUTO 32019G26KT 10SM OVC026 M03/M07 A2960 RMK AO2 T10271075
KDKB 140055Z AUTO 32016G29KT 10SM OVC026 M02/M07 A2957 RMK AO2 T10251075
KDKB 140035Z AUTO 32017G29KT 10SM OVC026 M02/M07 A2955 RMK AO2 T10221072
KDKB 140015Z AUTO 31020G28KT 10SM OVC026 M02/M07 A2952 RMK AO2 T10171068
KDKB 132355Z AUTO 32018G25KT 10SM OVC026 M01/M06 A2950 RMK AO2 T10131064 10028 21013
KDKB 132335Z AUTO 33016G22KT 10SM OVC026 M01/M05 A2948 RMK AO2 T10081055
KDKB 132315Z AUTO 33017G23KT 10SM OVC026 00/M05 A2946 RMK AO2 T10021051
KDKB 132255Z AUTO 31019G26KT 10SM OVC026 00/M04 A2944 RMK AO2 T00001045
KDKB 132235Z AUTO 31018G26KT 10SM OVC024 00/M04 A2942 RMK AO2 T00001041
KDKB 132215Z AUTO 31019G25KT 10SM OVC024 00/M04 A2940 RMK AO2 T00001036
KDKB 132155Z AUTO 31017G27KT 10SM OVC024 00/M04 A2939 RMK AO2 T00021037
KDKB 132135Z AUTO 32021G29KT 10SM OVC026 01/M03 A2937 RMK AO2 T00081029
KDKB 132115Z AUTO 31020G29KT 10SM OVC026 02/M02 A2934 RMK AO2 T00151024
KDKB 132055Z AUTO 30020G29KT 10SM OVC026 02/M01 A2932 RMK AO2 T00181013
KDKB 132035Z AUTO 29019G25KT 10SM BKN024 OVC028 02/00 A2930 RMK AO2 T00201001
KDKB 132015Z AUTO 28013KT 10SM OVC030 02/00 A2929 RMK AO2 T00170003
KDKB 131955Z AUTO 28017G23KT 10SM -RA SCT016 BKN033 OVC042 02/00 A2928 RMK AO2 T00160000
KDKB 131935Z AUTO 28016G23KT 7SM -RA SCT019 BKN026 OVC041 02/00 A2928 RMK AO2 T00180000
KDKB 131915Z AUTO 28018G28KT 10SM UP SCT027 SCT031 OVC037 03/M02 A2927 RMK AO2 T00271016
KDKB 131855Z AUTO 25012G18KT 10SM BKN039 BKN095 03/M02 A2927 RMK AO2 T00271020
KDKB 131835Z AUTO 24010KT 10SM SCT075 OVC085 02/M03 A2928 RMK AO2 T00201026
KDKB 131815Z AUTO 23013G16KT 10SM BKN075 OVC085 01/M03 A2929 RMK AO2 T00131030
KDKB 131755Z AUTO 22012KT 10SM OVC075 01/M03 A2929 RMK AO2 T00101032 10010 21045
KDKB 131735Z AUTO 21016G19KT 10SM SCT075 OVC100 01/M04 A2931 RMK AO2 T00081036
KDKB 131715Z AUTO 21014G19KT 10SM OVC100 00/M04 A2933 RMK AO2 T00041037
KDKB 131655Z AUTO 21017KT 10SM BKN100 00/M04 A2935 RMK AO2 T00021040
KDKB 131635Z AUTO 20013KT 10SM SCT100 00/M04 A2937 RMK AO2 T00001042
KDKB 131615Z AUTO 19013KT 10SM SCT120 M01/M05 A2937 RMK AO2 T10081047
KDKB 131555Z AUTO 20016G23KT 10SM SCT120 M01/M05 A2941 RMK AO2 T10101051
KDKB 131535Z AUTO 19019G24KT 10SM CLR M01/M05 A2941 RMK AO2 T10101054
KDKB 131515Z AUTO 17016G21KT 10SM CLR M02/M06 A2941 RMK AO2 T10221061
KDKB 131455Z AUTO 17016G22KT 10SM CLR M03/M07 A2944 RMK AO2 T10271067
KDKB 131435Z AUTO 18018KT 10SM SCT085 M03/M07 A2947 RMK AO2 T10301074
KDKB 131415Z AUTO 16019G23KT 10SM BKN075 M03/M08 A2947 RMK AO2 T10321078
KDKB 131355Z AUTO 15019KT 10SM BKN075 OVC090 M03/M08 A2947 RMK AO2 T10331081
KDKB 131335Z AUTO 15021G26KT 10SM OVC075 M04/M08 A2950 RMK AO2 T10361083
KDKB 131315Z AUTO 16019KT 10SM OVC075 M04/M09 A2953 RMK AO2 T10371086
KDKB 131255Z AUTO 16018G23KT 10SM OVC075 M04/M09 A2956 RMK AO2 T10381087
KDKB 131235Z AUTO 16015KT 10SM OVC075 M04/M08 A2960 RMK AO2 T10401085
KDKB 131215Z AUTO 16013KT 10SM OVC075 M04/M09 A2961 RMK AO2 T10431090
KDKB 131155Z AUTO 16011KT 10SM OVC075 M04/M09 A2963 RMK AO2 T10451090 11045 21065
KDKB 131135Z AUTO 16014KT 10SM BKN075 BKN100 BKN120 M04/M09 A2964 RMK AO2 T10451094
KDKB 131115Z AUTO 16013KT 10SM SCT075 BKN100 OVC120 M05/M09 A2966 RMK AO2 T10481095
KDKB 131055Z AUTO 17013KT 10SM OVC075 M05/M09 A2969 RMK AO2 T10501095
KDKB 131035Z AUTO 17011KT 10SM OVC075 M05/M09 A2969 RMK AO2 T10531095
KDKB 131015Z AUTO 17012KT 10SM OVC075 M05/M09 A2970 RMK AO2 T10541095
KDKB 130955Z AUTO 17010KT 10SM SCT034 SCT065 OVC075 M05/M09 A2972 RMK AO2 T10531092
KDKB 130935Z AUTO 17010KT 10SM SCT037 OVC075 M05/M09 A2974 RMK AO2 T10531094
KDKB 130915Z AUTO 17010KT 10SM OVC075 M05/M09 A2976 RMK AO2 T10541090
KDKB 130855Z AUTO 17010KT 10SM OVC075 M05/M09 A2978 RMK AO2 T10531093
KDKB 130835Z AUTO 16008KT 10SM OVC075 M05/M09 A2980 RMK AO2 T10551089
KDKB 130815Z AUTO 16007KT 10SM OVC075 M05/M09 A2982 RMK AO2 T10551087
KDKB 130755Z AUTO 18009KT 10SM OVC075 M06/M09 A2982 RMK AO2 T10561087
KDKB 130735Z AUTO 18009KT 10SM SCT028 OVC075 M06/M08 A2982 RMK AO2 T10581085
KDKB 130715Z AUTO 18009KT 10SM OVC028 M06/M09 A2983 RMK AO2 T10601088
KDKB 130655Z AUTO 17008KT 10SM OVC030 M06/M09 A2985 RMK AO2 T10621087
KDKB 130635Z AUTO 17008KT 10SM BKN028 OVC085 M06/M09 A2986 RMK AO2 T10651090
KDKB 130615Z AUTO 17006KT 10SM SCT030 SCT065 OVC085 M06/M09 A2987 RMK AO2 T10651091
KDKB 130555Z AUTO 17006KT 10SM SCT028 BKN065 OVC085 M06/M09 A2988 RMK AO2 T10601094 11060 21080 410111100
KDKB 130535Z AUTO 20006KT 10SM OVC030 M06/M09 A2989 RMK AO2 T10621094
KDKB 130515Z AUTO 22003KT 10SM SCT030 OVC041 M06/M11 A2991 RMK AO2 T10601107
KDKB 130455Z AUTO 23005KT 10SM OVC038 M06/M11 A2992 RMK AO2 T10601111
KDKB 130435Z AUTO 26004KT 10SM SCT040 BKN046 OVC080 M06/M11 A2995 RMK AO2 T10651110
KDKB 130415Z AUTO 25006KT 10SM SCT065 OVC080 M06/M11 A2994 RMK AO2 T10631113
KDKB 130355Z AUTO 26006KT 10SM SCT040 SCT049 OVC065 M06/M11 A2995 RMK AO2 T10621112
KDKB 130335Z AUTO 27004KT 10SM SCT040 SCT049 OVC065 M06/M12 A2996 RMK AO2 T10621117
KDKB 130310Z AUTO 26006KT 10SM SCT055 OVC075 M06/M11 A2997 RMK AO2 T10651115
KDKB 130255Z AUTO 26006KT 10SM SCT055 OVC075 M06/M12 A2998 RMK AO2 T10651122
KDKB 130235Z AUTO 27007KT 10SM SCT080 OVC085 M07/M13 A2998 RMK AO2 T10661126
KDKB 130215Z AUTO 28007KT 10SM SCT050 BKN075 OVC090 M07/M12 A2998 RMK AO2 T10691125
KDKB 130155Z AUTO 29007KT 10SM BKN050 OVC075 M07/M12 A2999 RMK AO2 T10701124
KDKB 130130Z AUTO 27008KT 10SM OVC050 M07/M12 A3000 RMK AO2 T10701122
KDKB 130115Z AUTO 27008KT 10SM OVC050 M07/M12 A3001 RMK AO2 T10721121
KDKB 130055Z AUTO 29008KT 10SM OVC055 M07/M13 A3001 RMK AO2 T10751127
KDKB 130035Z AUTO 27009KT 10SM BKN055 BKN065 OVC110 M08/M13 A3001 RMK AO2 T10761127
KDKB 130015Z AUTO 28012KT 10SM SCT065 OVC075 M08/M13 A3002 RMK AO2 T10791130
KDKB 122355Z AUTO 28011KT 10SM OVC075 M08/M13 A3002 RMK AO2 T10791128 11071 21080
KDKB 122335Z AUTO 28011KT 10SM SCT075 M08/M13 A3001 RMK AO2 T10801127
KDKB 122315Z AUTO 27011G16KT 10SM BKN075 M08/M13 A3002 RMK AO2 T10791128
KDKB 122255Z AUTO 27011KT 10SM OVC075 M08/M13 A3003 RMK AO2 T10781128
KDKB 122235Z AUTO 27010KT 10SM OVC085 M08/M13 A3004 RMK AO2 T10771126
KDKB 122215Z AUTO 28009KT 10SM BKN085 M08/M12 A3004 RMK AO2 T10771123
KDKB 122155Z AUTO 27009KT 10SM BKN095 M08/M13 A3003 RMK AO2 T10801127
KDKB 122135Z AUTO 28010KT 10SM BKN095 M07/M13 A3004 RMK AO2 T10751126
KDKB 122115Z AUTO 27011KT 10SM OVC095 M07/M13 A3004 RMK AO2 T10751130
KDKB 122055Z AUTO 28013G17KT 10SM OVC095 M07/M13 A3005 RMK AO2 T10731130
KDKB 122035Z AUTO 29012KT 10SM OVC095 M07/M13 A3005 RMK AO2 T10711126
KDKB 122015Z AUTO 28016G20KT 10SM BKN095 M07/M13 A3006 RMK AO2 T10721129
KDKB 121955Z AUTO 28015G18KT 10SM SCT095 M07/M12 A3006 RMK AO2 T10751125
KDKB 121935Z AUTO 30013KT 10SM CLR M07/M12 A3006 RMK AO2 T10751123
KDKB 121915Z AUTO 30015G20KT 10SM CLR M07/M12 A3006 RMK AO2 T10751121
KDKB 121855Z AUTO 29015G18KT 10SM SCT020 M07/M12 A3007 RMK AO2 T10751119
KDKB 121835Z AUTO 30013KT 10SM SCT022 M08/M12 A3007 RMK AO2 T10761122
KDKB 121815Z AUTO 30012G18KT 10SM SCT022 M07/M12 A3008 RMK AO2 T10741122
KDKB 121755Z AUTO 30013KT 10SM SCT022 M08/M12 A3009 RMK AO2 T10761123 11076 21100
KDKB 121735Z AUTO 29010KT 10SM SCT022 M08/M12 A3009 RMK AO2 T10781123
KDKB 121715Z AUTO 31010KT 10SM OVC024 M08/M12 A3010 RMK AO2 T10761118
KDKB 121655Z AUTO 30010KT 10SM BKN024 M08/M13 A3012 RMK AO2 T10801128
KDKB 121635Z AUTO 32010KT 10SM BKN024 M08/M13 A3012 RMK AO2 T10811130
KDKB 121615Z AUTO 31011G16KT 10SM BKN024 M08/M13 A3013 RMK AO2 T10841127
KDKB 121555Z AUTO 30012G16KT 10SM SCT024 M08/M13 A3012 RMK AO2 T10851126
KDKB 121535Z AUTO 30012G16KT 10SM CLR M09/M13 A3012 RMK AO2 T10901130
KDKB 121515Z AUTO 31011KT 10SM SCT026 M09/M13 A3011 RMK AO2 T10951132
KDKB 121455Z AUTO 31008KT 10SM OVC026 M10/M13 A3011 RMK AO2 T10961135
KDKB 121435Z AUTO 30009KT 10SM OVC028 M10/M14 A3011 RMK AO2 T10981136